Hampton, Tennessee
Current Conditions -  °F | °C
As of 5:35 AM on Saturday 22 Nov 2014 (Local Time) from K0A9 Reporting Station
Clear Clear  
Wind Chill: 28°   Ceiling: Unl
Heat Index: 28°   Visibility: 10mi
Dew Point: 16°   Wind: 3mph
Humidity: 59%   Direction: 50°NE
Pressure: 30.43"   Gusts: NA
Location:  36.28°N, 82.17°W
Report Text: K0A9 221035Z AUTO 05003KT 10SM CLR M02/M09 A3043 RMK
Loading
Personal Weather Stations






























Interactive Weather Map New forecast layout! Learn more

10-Day Weather Forecast

Advertisements
Track Severe Weather on mobile